Terminal Aerodrome Forecast
Issued by NWS Quad Cities IA IL

Home | Current Version | Previous Version | Text Only | Print | Product List | Glossary On
Versions: 1 2 3 4 5 6 7 8 9 10 11 12 13 14 15 16 17 18 19 20 21 22 23 24 25 26 27 28 29 30 31
950
FTUS43 KDVN 190410 AAA
TAFDBQ
TAF AMD
KDBQ 190410Z 1904/1924 20009KT 2SM BR SKC
      TEMPO 1904/1906 1SM BR BKN003
     FM190600 19007KT 2SM BR OVC002
     FM191500 16007KT 2SM BR OVC002
     FM192100 10005KT 1SM -RA OVC005=

USA.gov is the U.S. government's official web portal to all federal, state and local government web resources and services.